createdAt,value
2018-03-04T06:22:42.214Z,31.30
2018-03-04T06:23:42.159Z,31.40
2018-03-04T06:25:36.547Z,32.75
2018-03-04T16:49:08.873Z,36.53
2018-03-04T16:50:08.763Z,36.70
2018-03-04T16:52:02.159Z,36.82
2018-03-04T16:53:02.104Z,36.82
2018-03-04T16:54:55.513Z,37.10
2018-03-04T16:55:55.531Z,37.01
2018-03-04T16:57:49.000Z,37.30
2018-03-04T16:58:48.901Z,37.39
2018-03-04T17:00:42.264Z,37.49
2018-03-04T17:01:42.262Z,37.49
2018-03-04T17:03:35.764Z,37.77
2018-03-04T17:04:35.749Z,38.07
2018-03-04T17:06:29.162Z,38.16
2018-03-04T17:07:29.078Z,38.54
2018-03-04T17:09:22.461Z,39.41
2018-03-04T17:10:22.450Z,39.79
2018-03-04T17:12:15.888Z,41.14
2018-03-04T17:13:15.854Z,42.30
2018-03-04T17:15:09.292Z,42.58
2018-03-04T17:16:09.317Z,41.82
2018-03-04T19:13:49.196Z,44.51
2018-03-04T19:14:49.122Z,44.99
2018-03-04T19:16:43.614Z,45.37
2018-03-04T19:17:43.541Z,46.33
2018-03-04T19:19:36.893Z,47.20
2018-03-04T19:20:36.892Z,46.72
2018-03-04T19:22:31.429Z,46.62
2018-03-04T19:23:31.330Z,46.62
2018-03-04T19:25:24.750Z,45.95
2018-03-04T19:26:24.697Z,45.76
2018-03-04T19:28:18.085Z,45.66
2018-03-04T19:29:18.088Z,45.37
2018-03-04T19:31:11.531Z,45.37
2018-03-04T19:32:11.479Z,44.99
2018-03-04T19:33:11.523Z,44.99
2018-03-04T19:34:11.516Z,44.89
2018-03-04T19:35:11.498Z,44.60
2018-03-04T19:36:11.518Z,44.79
2018-03-04T19:37:11.512Z,43.93
2018-03-04T19:38:11.533Z,44.22
2018-03-04T19:39:11.529Z,43.84
2018-03-04T19:40:11.527Z,43.54
2018-03-04T19:41:11.598Z,43.35
2018-03-04T19:42:11.545Z,43.35
2018-03-04T19:43:11.627Z,43.07
2018-03-04T19:44:11.554Z,43.45
2018-03-04T19:45:11.579Z,43.74
2018-03-04T19:46:11.567Z,44.02
2018-03-04T19:47:11.607Z,44.02
2018-03-04T19:48:11.578Z,43.84
2018-03-04T19:49:11.585Z,43.45
2018-03-04T19:50:11.600Z,43.93
2018-03-04T19:51:11.597Z,44.31
2018-03-04T19:52:11.618Z,44.70
2018-03-04T19:53:11.613Z,44.99
2018-03-04T19:54:11.621Z,44.79
2018-03-04T19:55:11.625Z,44.79
2018-03-04T19:56:11.684Z,44.89
2018-03-04T19:57:11.649Z,44.51
2018-03-04T19:58:11.703Z,44.60
2018-03-04T19:59:11.700Z,44.60
2018-03-04T20:00:11.664Z,44.51
2018-03-04T20:01:11.692Z,44.60
2018-03-04T20:02:11.684Z,44.70
2018-03-04T20:03:11.744Z,44.51
2018-03-04T20:04:11.739Z,44.22
2018-03-04T20:05:11.746Z,44.22
2018-03-04T20:06:11.707Z,44.22
2018-03-04T20:07:12.586Z,44.41
2018-03-04T20:08:11.731Z,43.95
2018-03-04T20:09:11.790Z,44.60
2018-03-04T20:10:11.780Z,44.60
2018-03-04T20:11:11.743Z,44.60
2018-03-04T20:12:11.738Z,44.51
2018-03-04T20:13:11.752Z,44.34
2018-03-04T20:14:11.770Z,44.34
2018-03-04T20:15:11.812Z,44.43
2018-03-04T20:16:11.822Z,44.12
2018-03-04T20:17:11.784Z,44.02
2018-03-04T20:18:11.794Z,43.85
2018-03-04T20:19:11.786Z,43.85
2018-03-04T20:20:11.792Z,44.05
2018-03-04T20:21:11.799Z,43.93
2018-03-04T20:22:11.806Z,44.02
2018-03-04T20:23:11.827Z,43.84
2018-03-04T20:24:11.829Z,43.76
2018-03-04T20:25:11.860Z,43.85
2018-03-04T20:26:11.890Z,43.85
2018-03-04T20:27:11.841Z,43.57
2018-03-04T20:28:11.887Z,43.47
2018-03-04T20:29:11.888Z,43.28
2018-03-04T20:30:11.880Z,43.28
2018-03-04T20:31:11.887Z,43.37
2018-03-04T20:32:11.879Z,43.28
2018-03-04T20:33:11.880Z,43.08
2018-03-04T20:34:11.889Z,43.37
2018-03-04T20:35:11.905Z,43.18
2018-03-04T20:36:11.922Z,43.47
2018-03-04T20:37:11.909Z,43.95
2018-03-04T20:38:11.918Z,43.37
2018-03-04T20:39:11.959Z,43.28
2018-03-04T20:40:11.947Z,43.37
2018-03-04T20:41:32.722Z,43.18
2018-03-04T20:42:32.676Z,43.18
2018-03-04T20:44:27.183Z,43.18
2018-03-04T20:45:27.137Z,43.37
2018-03-04T20:47:20.479Z,43.28
2018-03-04T20:48:20.474Z,43.28
2018-03-04T20:50:13.928Z,43.66
2018-03-04T20:51:13.901Z,43.57
2018-03-04T20:53:07.273Z,43.47
2018-03-04T20:54:07.273Z,43.18
2018-03-04T20:56:00.720Z,43.47
2018-03-04T20:57:00.674Z,43.37
2018-03-04T20:58:55.130Z,43.28
2018-03-04T20:59:55.082Z,43.37
2018-03-04T21:01:48.560Z,43.28
2018-03-04T21:02:48.566Z,43.37
2018-03-04T21:04:41.961Z,43.66
2018-03-04T21:05:41.900Z,43.47
2018-03-04T21:07:36.293Z,43.37
